sensor_id;sensor_type;location;lat;lon;timestamp;pressure;altitude;pressure_sealevel;temperature;humidity
46394;BME280;32099;53.588;10.176;2023-04-07T00:00:13;101472.91;;;5.54;52.22
46394;BME280;32099;53.588;10.176;2023-04-07T00:02:40;101468.22;;;5.56;52.19
46394;BME280;32099;53.588;10.176;2023-04-07T00:05:06;101465.66;;;5.54;52.17
46394;BME280;32099;53.588;10.176;2023-04-07T00:07:31;101467.63;;;5.52;52.00
46394;BME280;32099;53.588;10.176;2023-04-07T00:09:57;101465.06;;;5.51;52.66
46394;BME280;32099;53.588;10.176;2023-04-07T00:12:22;101471.31;;;5.51;51.97
46394;BME280;32099;53.588;10.176;2023-04-07T00:14:47;101464.44;;;5.47;52.40
46394;BME280;32099;53.588;10.176;2023-04-07T00:17:12;101471.88;;;5.45;52.60
46394;BME280;32099;53.588;10.176;2023-04-07T00:19:38;101464.00;;;5.42;52.49
46394;BME280;32099;53.588;10.176;2023-04-07T00:22:03;101474.25;;;5.38;52.31
46394;BME280;32099;53.588;10.176;2023-04-07T00:24:28;101470.66;;;5.38;52.86
46394;BME280;32099;53.588;10.176;2023-04-07T00:26:54;101466.25;;;5.37;52.94
46394;BME280;32099;53.588;10.176;2023-04-07T00:29:20;101466.38;;;5.35;53.54
46394;BME280;32099;53.588;10.176;2023-04-07T00:31:46;101472.03;;;5.32;52.96
46394;BME280;32099;53.588;10.176;2023-04-07T00:34:11;101472.19;;;5.31;53.13
46394;BME280;32099;53.588;10.176;2023-04-07T00:36:36;101475.88;;;5.30;52.47
46394;BME280;32099;53.588;10.176;2023-04-07T00:39:01;101472.59;;;5.26;53.56
46394;BME280;32099;53.588;10.176;2023-04-07T00:41:27;101480.81;;;5.24;52.88
46394;BME280;32099;53.588;10.176;2023-04-07T00:43:52;101472.00;;;5.22;53.84
46394;BME280;32099;53.588;10.176;2023-04-07T00:46:18;101473.09;;;5.20;53.72
46394;BME280;32099;53.588;10.176;2023-04-07T00:48:46;101464.25;;;5.18;53.20
46394;BME280;32099;53.588;10.176;2023-04-07T00:51:11;101468.81;;;5.17;53.57
46394;BME280;32099;53.588;10.176;2023-04-07T00:53:37;101463.41;;;5.17;52.61
46394;BME280;32099;53.588;10.176;2023-04-07T00:56:02;101465.97;;;5.19;52.46
46394;BME280;32099;53.588;10.176;2023-04-07T00:58:27;101469.28;;;5.22;52.13
46394;BME280;32099;53.588;10.176;2023-04-07T01:01:12;101470.13;;;5.23;53.07
46394;BME280;32099;53.588;10.176;2023-04-07T01:03:48;101464.84;;;5.21;53.51
46394;BME280;32099;53.588;10.176;2023-04-07T01:06:19;101472.09;;;5.21;52.27
46394;BME280;32099;53.588;10.176;2023-04-07T01:11:29;101464.25;;;5.18;52.75
46394;BME280;32099;53.588;10.176;2023-04-07T01:14:06;101470.38;;;5.20;52.51
46394;BME280;32099;53.588;10.176;2023-04-07T01:16:40;101478.63;;;5.18;52.73
46394;BME280;32099;53.588;10.176;2023-04-07T01:19:23;101464.63;;;5.13;53.58
46394;BME280;32099;53.588;10.176;2023-04-07T01:21:58;101465.75;;;5.10;52.95
46394;BME280;32099;53.588;10.176;2023-04-07T01:26:59;101475.44;;;5.13;53.01
46394;BME280;32099;53.588;10.176;2023-04-07T01:29:38;101463.94;;;5.11;53.33
46394;BME280;32099;53.588;10.176;2023-04-07T01:32:11;101469.69;;;5.06;53.11
46394;BME280;32099;53.588;10.176;2023-04-07T01:34:38;101463.69;;;5.03;53.14
46394;BME280;32099;53.588;10.176;2023-04-07T01:37:05;101464.09;;;4.98;53.16
46394;BME280;32099;53.588;10.176;2023-04-07T01:39:31;101464.34;;;4.95;53.36
46394;BME280;32099;53.588;10.176;2023-04-07T01:41:58;101469.63;;;4.97;53.42
46394;BME280;32099;53.588;10.176;2023-04-07T01:44:26;101463.88;;;4.90;53.38
46394;BME280;32099;53.588;10.176;2023-04-07T01:46:53;101471.38;;;4.86;54.26
46394;BME280;32099;53.588;10.176;2023-04-07T01:49:19;101468.78;;;4.85;53.56
46394;BME280;32099;53.588;10.176;2023-04-07T01:51:45;101470.06;;;4.81;52.99
46394;BME280;32099;53.588;10.176;2023-04-07T01:54:14;101468.19;;;4.81;54.22
46394;BME280;32099;53.588;10.176;2023-04-07T01:56:40;101468.72;;;4.75;53.54
46394;BME280;32099;53.588;10.176;2023-04-07T01:59:05;101473.25;;;4.74;54.11
46394;BME280;32099;53.588;10.176;2023-04-07T02:01:31;101467.09;;;4.72;54.15
46394;BME280;32099;53.588;10.176;2023-04-07T02:04:01;101469.34;;;4.67;54.34
46394;BME280;32099;53.588;10.176;2023-04-07T02:06:34;101469.72;;;4.62;53.83
46394;BME280;32099;53.588;10.176;2023-04-07T02:09:06;101463.72;;;4.59;54.38
46394;BME280;32099;53.588;10.176;2023-04-07T02:11:35;101472.22;;;4.54;54.13
46394;BME280;32099;53.588;10.176;2023-04-07T02:14:03;101468.41;;;4.45;55.10
46394;BME280;32099;53.588;10.176;2023-04-07T02:16:30;101462.28;;;4.43;54.72
46394;BME280;32099;53.588;10.176;2023-04-07T02:18:56;101470.25;;;4.45;55.55
46394;BME280;32099;53.588;10.176;2023-04-07T02:21:24;101470.38;;;4.43;54.46
46394;BME280;32099;53.588;10.176;2023-04-07T02:23:51;101468.91;;;4.39;53.94
46394;BME280;32099;53.588;10.176;2023-04-07T02:26:16;101477.88;;;4.40;54.47
46394;BME280;32099;53.588;10.176;2023-04-07T02:28:41;101470.63;;;4.40;54.52
46394;BME280;32099;53.588;10.176;2023-04-07T02:31:06;101472.34;;;4.41;54.08
46394;BME280;32099;53.588;10.176;2023-04-07T02:33:32;101470.75;;;4.39;54.13
46394;BME280;32099;53.588;10.176;2023-04-07T02:35:57;101476.03;;;4.40;54.90
46394;BME280;32099;53.588;10.176;2023-04-07T02:38:22;101473.69;;;4.36;54.37
46394;BME280;32099;53.588;10.176;2023-04-07T02:40:48;101479.09;;;4.36;54.77
46394;BME280;32099;53.588;10.176;2023-04-07T02:43:13;101467.56;;;4.33;54.93
46394;BME280;32099;53.588;10.176;2023-04-07T02:45:40;101478.50;;;4.32;54.75
46394;BME280;32099;53.588;10.176;2023-04-07T02:48:05;101476.78;;;4.31;54.33
46394;BME280;32099;53.588;10.176;2023-04-07T02:50:31;101485.63;;;4.33;53.80
46394;BME280;32099;53.588;10.176;2023-04-07T02:52:56;101481.34;;;4.30;54.16
46394;BME280;32099;53.588;10.176;2023-04-07T02:55:21;101477.00;;;4.28;54.99
46394;BME280;32099;53.588;10.176;2023-04-07T02:57:46;101484.28;;;4.27;54.23
46394;BME280;32099;53.588;10.176;2023-04-07T03:00:13;101479.84;;;4.26;54.80
46394;BME280;32099;53.588;10.176;2023-04-07T03:02:40;101483.53;;;4.25;54.43
46394;BME280;32099;53.588;10.176;2023-04-07T03:05:05;101482.69;;;4.25;54.64
46394;BME280;32099;53.588;10.176;2023-04-07T03:07:31;101480.09;;;4.23;53.94
46394;BME280;32099;53.588;10.176;2023-04-07T03:09:56;101483.66;;;4.24;54.74
46394;BME280;32099;53.588;10.176;2023-04-07T03:12:21;101492.97;;;4.20;55.29
46394;BME280;32099;53.588;10.176;2023-04-07T03:14:47;101480.00;;;4.13;55.66
46394;BME280;32099;53.588;10.176;2023-04-07T03:17:12;101482.94;;;4.10;54.61
46394;BME280;32099;53.588;10.176;2023-04-07T03:19:37;101483.91;;;4.09;53.80
46394;BME280;32099;53.588;10.176;2023-04-07T03:22:03;101480.97;;;4.12;54.75
46394;BME280;32099;53.588;10.176;2023-04-07T03:24:28;101476.53;;;4.11;54.80
46394;BME280;32099;53.588;10.176;2023-04-07T03:26:53;101480.22;;;4.10;54.26
46394;BME280;32099;53.588;10.176;2023-04-07T03:29:18;101483.78;;;4.11;54.80
46394;BME280;32099;53.588;10.176;2023-04-07T03:31:44;101481.44;;;4.06;55.18
46394;BME280;32099;53.588;10.176;2023-04-07T03:34:09;101484.88;;;4.08;54.77
46394;BME280;32099;53.588;10.176;2023-04-07T03:36:35;101484.88;;;4.08;54.61
46394;BME280;32099;53.588;10.176;2023-04-07T03:39:00;101485.72;;;4.09;54.20
46394;BME280;32099;53.588;10.176;2023-04-07T03:41:25;101492.75;;;4.11;54.36
46394;BME280;32099;53.588;10.176;2023-04-07T03:43:51;101488.44;;;4.09;54.93
46394;BME280;32099;53.588;10.176;2023-04-07T03:46:17;101492.97;;;4.08;54.52
46394;BME280;32099;53.588;10.176;2023-04-07T03:48:44;101486.00;;;4.06;54.28
46394;BME280;32099;53.588;10.176;2023-04-07T03:51:09;101493.97;;;4.07;54.49
46394;BME280;32099;53.588;10.176;2023-04-07T03:53:34;101497.53;;;4.08;54.08
46394;BME280;32099;53.588;10.176;2023-04-07T03:55:59;101506.47;;;4.08;54.37
46394;BME280;32099;53.588;10.176;2023-04-07T03:58:25;101506.84;;;4.04;54.51
46394;BME280;32099;53.588;10.176;2023-04-07T04:00:50;101508.06;;;3.99;54.62
46394;BME280;32099;53.588;10.176;2023-04-07T04:03:15;101506.09;;;4.01;53.80
46394;BME280;32099;53.588;10.176;2023-04-07T04:05:40;101509.91;;;3.99;54.06
46394;BME280;32099;53.588;10.176;2023-04-07T04:08:06;101510.00;;;3.97;54.72
46394;BME280;32099;53.588;10.176;2023-04-07T04:10:31;101511.03;;;3.96;54.01
46394;BME280;32099;53.588;10.176;2023-04-07T04:12:56;101520.19;;;3.94;54.68
46394;BME280;32099;53.588;10.176;2023-04-07T04:15:24;101520.47;;;3.91;54.33
46394;BME280;32099;53.588;10.176;2023-04-07T04:17:50;101523.16;;;3.91;54.21
46394;BME280;32099;53.588;10.176;2023-04-07T04:20:15;101523.25;;;3.89;55.30
46394;BME280;32099;53.588;10.176;2023-04-07T04:22:41;101528.03;;;3.85;54.48
46394;BME280;32099;53.588;10.176;2023-04-07T04:25:06;101526.44;;;3.83;53.97
46394;BME280;32099;53.588;10.176;2023-04-07T04:27:32;101527.66;;;3.79;54.36
46394;BME280;32099;53.588;10.176;2023-04-07T04:29:57;101531.47;;;3.76;54.29
46394;BME280;32099;53.588;10.176;2023-04-07T04:32:22;101530.84;;;3.73;55.32
46394;BME280;32099;53.588;10.176;2023-04-07T04:34:48;101531.06;;;3.69;54.82
46394;BME280;32099;53.588;10.176;2023-04-07T04:37:13;101533.25;;;3.64;55.51
46394;BME280;32099;53.588;10.176;2023-04-07T04:39:38;101527.75;;;3.66;55.07
46394;BME280;32099;53.588;10.176;2023-04-07T04:42:04;101540.50;;;3.64;54.96
46394;BME280;32099;53.588;10.176;2023-04-07T04:44:29;101535.94;;;3.64;55.13
46394;BME280;32099;53.588;10.176;2023-04-07T04:46:55;101550.19;;;3.66;54.92
46394;BME280;32099;53.588;10.176;2023-04-07T04:49:21;101546.88;;;3.63;55.28
46394;BME280;32099;53.588;10.176;2023-04-07T04:51:46;101550.78;;;3.59;55.92
46394;BME280;32099;53.588;10.176;2023-04-07T04:54:11;101549.19;;;3.56;55.56
46394;BME280;32099;53.588;10.176;2023-04-07T04:56:37;101551.03;;;3.55;56.01
46394;BME280;32099;53.588;10.176;2023-04-07T04:59:03;101552.84;;;3.55;55.32
46394;BME280;32099;53.588;10.176;2023-04-07T05:01:28;101557.63;;;3.51;56.45
46394;BME280;32099;53.588;10.176;2023-04-07T05:03:54;101563.25;;;3.48;56.62
46394;BME280;32099;53.588;10.176;2023-04-07T05:06:19;101567.88;;;3.46;56.49
46394;BME280;32099;53.588;10.176;2023-04-07T05:08:45;101566.81;;;3.49;56.38
46394;BME280;32099;53.588;10.176;2023-04-07T05:11:14;101565.84;;;3.50;55.98
46394;BME280;32099;53.588;10.176;2023-04-07T05:13:39;101564.75;;;3.52;56.86
46394;BME280;32099;53.588;10.176;2023-04-07T05:16:04;101572.84;;;3.52;56.76
46394;BME280;32099;53.588;10.176;2023-04-07T05:18:30;101565.94;;;3.48;56.72
46394;BME280;32099;53.588;10.176;2023-04-07T05:20:55;101587.28;;;3.51;55.73
46394;BME280;32099;53.588;10.176;2023-04-07T05:23:21;101586.09;;;3.55;55.70
46394;BME280;32099;53.588;10.176;2023-04-07T05:25:46;101582.28;;;3.58;56.01
46394;BME280;32099;53.588;10.176;2023-04-07T05:28:11;101585.13;;;3.57;56.90
46394;BME280;32099;53.588;10.176;2023-04-07T05:30:36;101594.69;;;3.61;55.82
46394;BME280;32099;53.588;10.176;2023-04-07T05:33:02;101588.53;;;3.59;56.37
46394;BME280;32099;53.588;10.176;2023-04-07T05:35:27;101590.03;;;3.63;56.00
46394;BME280;32099;53.588;10.176;2023-04-07T05:37:53;101585.16;;;3.68;55.78
46394;BME280;32099;53.588;10.176;2023-04-07T05:40:18;101599.28;;;3.72;56.37
46394;BME280;32099;53.588;10.176;2023-04-07T05:42:44;101585.66;;;3.73;55.98
46394;BME280;32099;53.588;10.176;2023-04-07T05:45:09;101592.63;;;3.76;55.86
46394;BME280;32099;53.588;10.176;2023-04-07T05:47:35;101592.63;;;3.76;55.46
46394;BME280;32099;53.588;10.176;2023-04-07T05:50:00;101604.81;;;3.81;56.42
46394;BME280;32099;53.588;10.176;2023-04-07T05:52:25;101605.53;;;3.83;55.78
46394;BME280;32099;53.588;10.176;2023-04-07T05:54:51;101601.66;;;3.88;55.55
46394;BME280;32099;53.588;10.176;2023-04-07T05:57:16;101614.03;;;3.90;55.70
46394;BME280;32099;53.588;10.176;2023-04-07T05:59:42;101609.88;;;3.97;55.45
46394;BME280;32099;53.588;10.176;2023-04-07T06:02:07;101603.41;;;4.00;55.70
46394;BME280;32099;53.588;10.176;2023-04-07T06:04:32;101623.41;;;4.09;55.17
46394;BME280;32099;53.588;10.176;2023-04-07T06:06:59;101607.09;;;4.10;55.93
46394;BME280;32099;53.588;10.176;2023-04-07T06:09:27;101614.72;;;4.16;55.87
46394;BME280;32099;53.588;10.176;2023-04-07T06:11:52;101622.44;;;4.21;55.02
46394;BME280;32099;53.588;10.176;2023-04-07T06:14:17;101625.44;;;4.29;55.51
46394;BME280;32099;53.588;10.176;2023-04-07T06:16:43;101628.59;;;4.35;55.26
46394;BME280;32099;53.588;10.176;2023-04-07T06:19:08;101630.94;;;4.39;55.29
46394;BME280;32099;53.588;10.176;2023-04-07T06:21:33;101634.16;;;4.44;55.89
46394;BME280;32099;53.588;10.176;2023-04-07T06:23:59;101636.25;;;4.52;54.94
46394;BME280;32099;53.588;10.176;2023-04-07T06:26:24;101631.31;;;4.57;54.87
46394;BME280;32099;53.588;10.176;2023-04-07T06:28:51;101640.03;;;4.61;54.87
46394;BME280;32099;53.588;10.176;2023-04-07T06:31:16;101643.00;;;4.69;54.20
46394;BME280;32099;53.588;10.176;2023-04-07T06:33:43;101643.38;;;4.76;53.95
46394;BME280;32099;53.588;10.176;2023-04-07T06:36:08;101653.81;;;4.81;53.81
46394;BME280;32099;53.588;10.176;2023-04-07T06:38:34;101650.00;;;4.83;54.86
46394;BME280;32099;53.588;10.176;2023-04-07T06:41:00;101647.81;;;4.88;53.91
46394;BME280;32099;53.588;10.176;2023-04-07T06:43:25;101649.50;;;5.01;54.41
46394;BME280;32099;53.588;10.176;2023-04-07T06:45:50;101659.22;;;5.15;53.91
46394;BME280;32099;53.588;10.176;2023-04-07T06:48:16;101662.75;;;5.27;53.61
46394;BME280;32099;53.588;10.176;2023-04-07T06:50:44;101665.91;;;5.43;52.85
46394;BME280;32099;53.588;10.176;2023-04-07T06:53:10;101663.53;;;5.61;52.63
46394;BME280;32099;53.588;10.176;2023-04-07T06:55:35;101662.94;;;5.79;52.23
46394;BME280;32099;53.588;10.176;2023-04-07T06:58:00;101664.13;;;5.97;52.29
46394;BME280;32099;53.588;10.176;2023-04-07T07:00:26;101669.47;;;6.20;52.18
46394;BME280;32099;53.588;10.176;2023-04-07T07:02:54;101663.03;;;6.42;50.49
46394;BME280;32099;53.588;10.176;2023-04-07T07:05:19;101663.00;;;6.63;50.89
46394;BME280;32099;53.588;10.176;2023-04-07T07:07:44;101666.28;;;6.88;50.18
46394;BME280;32099;53.588;10.176;2023-04-07T07:10:09;101667.06;;;7.10;49.67
46394;BME280;32099;53.588;10.176;2023-04-07T07:12:35;101666.56;;;7.36;49.12
46394;BME280;32099;53.588;10.176;2023-04-07T07:15:01;101668.72;;;7.52;48.14
46394;BME280;32099;53.588;10.176;2023-04-07T07:17:26;101663.59;;;7.59;47.79
46394;BME280;32099;53.588;10.176;2023-04-07T07:19:51;101670.75;;;7.79;48.34
46394;BME280;32099;53.588;10.176;2023-04-07T07:22:16;101667.75;;;8.02;47.73
46394;BME280;32099;53.588;10.176;2023-04-07T07:24:42;101664.16;;;8.21;46.47
46394;BME280;32099;53.588;10.176;2023-04-07T07:27:07;101671.00;;;8.45;47.08
46394;BME280;32099;53.588;10.176;2023-04-07T07:29:32;101669.53;;;8.70;45.66
46394;BME280;32099;53.588;10.176;2023-04-07T07:31:57;101671.88;;;8.93;45.53
46394;BME280;32099;53.588;10.176;2023-04-07T07:34:23;101679.94;;;9.13;44.48
46394;BME280;32099;53.588;10.176;2023-04-07T07:36:48;101683.72;;;9.30;45.27
46394;BME280;32099;53.588;10.176;2023-04-07T07:39:13;101677.22;;;9.40;45.20
46394;BME280;32099;53.588;10.176;2023-04-07T07:41:39;101674.81;;;9.55;43.91
46394;BME280;32099;53.588;10.176;2023-04-07T07:44:05;101689.94;;;9.68;43.93
46394;BME280;32099;53.588;10.176;2023-04-07T07:46:30;101687.16;;;9.78;42.49
46394;BME280;32099;53.588;10.176;2023-04-07T07:48:56;101692.56;;;9.96;42.35
46394;BME280;32099;53.588;10.176;2023-04-07T07:51:21;101703.81;;;10.11;42.81
46394;BME280;32099;53.588;10.176;2023-04-07T07:53:46;101695.63;;;10.29;42.16
46394;BME280;32099;53.588;10.176;2023-04-07T07:56:12;101705.47;;;10.48;42.46
46394;BME280;32099;53.588;10.176;2023-04-07T07:58:37;101698.88;;;10.77;42.23
46394;BME280;32099;53.588;10.176;2023-04-07T08:01:03;101692.38;;;11.04;42.33
46394;BME280;32099;53.588;10.176;2023-04-07T08:03:28;101704.22;;;11.21;41.05
46394;BME280;32099;53.588;10.176;2023-04-07T08:05:53;101702.50;;;11.20;39.70
46394;BME280;32099;53.588;10.176;2023-04-07T08:08:19;101702.81;;;11.17;40.13
46394;BME280;32099;53.588;10.176;2023-04-07T08:10:44;101709.06;;;11.36;41.10
46394;BME280;32099;53.588;10.176;2023-04-07T08:13:09;101703.88;;;11.67;40.05
46394;BME280;32099;53.588;10.176;2023-04-07T08:15:35;101706.94;;;11.81;40.37
46394;BME280;32099;53.588;10.176;2023-04-07T08:18:00;101707.50;;;11.93;39.49
46394;BME280;32099;53.588;10.176;2023-04-07T08:20:28;101709.94;;;12.12;39.51
46394;BME280;32099;53.588;10.176;2023-04-07T08:22:53;101706.88;;;12.07;38.26
46394;BME280;32099;53.588;10.176;2023-04-07T08:25:19;101704.25;;;11.97;37.18
46394;BME280;32099;53.588;10.176;2023-04-07T08:27:44;101713.00;;;12.01;39.55
46394;BME280;32099;53.588;10.176;2023-04-07T08:30:10;101715.25;;;12.22;39.62
46394;BME280;32099;53.588;10.176;2023-04-07T08:32:44;101709.78;;;12.30;39.51
46394;BME280;32099;53.588;10.176;2023-04-07T08:35:09;101713.19;;;12.57;37.70
46394;BME280;32099;53.588;10.176;2023-04-07T08:37:36;101705.59;;;12.84;38.71
46394;BME280;32099;53.588;10.176;2023-04-07T08:40:03;101709.50;;;12.98;36.91
46394;BME280;32099;53.588;10.176;2023-04-07T08:42:29;101714.09;;;13.06;38.42
46394;BME280;32099;53.588;10.176;2023-04-07T08:44:56;101708.75;;;13.12;37.75
46394;BME280;32099;53.588;10.176;2023-04-07T08:47:27;101714.03;;;13.22;37.50
46394;BME280;32099;53.588;10.176;2023-04-07T08:49:56;101711.41;;;13.37;38.19
46394;BME280;32099;53.588;10.176;2023-04-07T08:52:26;101718.94;;;13.35;36.50
46394;BME280;32099;53.588;10.176;2023-04-07T08:54:58;101720.50;;;13.38;37.51
46394;BME280;32099;53.588;10.176;2023-04-07T08:57:27;101718.09;;;13.35;36.44
46394;BME280;32099;53.588;10.176;2023-04-07T08:59:56;101714.16;;;13.46;38.41
46394;BME280;32099;53.588;10.176;2023-04-07T09:02:24;101727.84;;;13.37;37.31
46394;BME280;32099;53.588;10.176;2023-04-07T09:04:50;101721.19;;;13.32;35.14
46394;BME280;32099;53.588;10.176;2023-04-07T09:07:15;101716.94;;;13.29;36.99
46394;BME280;32099;53.588;10.176;2023-04-07T09:09:40;101716.03;;;13.45;36.86
46394;BME280;32099;53.588;10.176;2023-04-07T09:12:06;101715.69;;;13.80;38.30
46394;BME280;32099;53.588;10.176;2023-04-07T09:14:31;101712.03;;;14.11;36.91
46394;BME280;32099;53.588;10.176;2023-04-07T09:16:56;101717.81;;;14.16;34.61
46394;BME280;32099;53.588;10.176;2023-04-07T09:19:25;101720.50;;;14.24;36.32
46394;BME280;32099;53.588;10.176;2023-04-07T09:21:52;101726.41;;;14.36;36.21
46394;BME280;32099;53.588;10.176;2023-04-07T09:24:27;101723.91;;;14.49;35.18
46394;BME280;32099;53.588;10.176;2023-04-07T09:27:14;101714.91;;;14.17;34.59
46394;BME280;32099;53.588;10.176;2023-04-07T09:29:40;101724.09;;;14.01;34.24
46394;BME280;32099;53.588;10.176;2023-04-07T09:32:07;101710.22;;;13.80;33.80
46394;BME280;32099;53.588;10.176;2023-04-07T09:34:36;101710.00;;;13.50;34.09
46394;BME280;32099;53.588;10.176;2023-04-07T09:37:05;101712.63;;;13.35;34.38
46394;BME280;32099;53.588;10.176;2023-04-07T09:39:31;101717.97;;;13.28;33.83
46394;BME280;32099;53.588;10.176;2023-04-07T09:41:57;101716.72;;;13.39;35.65
46394;BME280;32099;53.588;10.176;2023-04-07T09:44:22;101712.75;;;13.50;37.60
46394;BME280;32099;53.588;10.176;2023-04-07T09:49:14;101705.19;;;14.07;36.07
46394;BME280;32099;53.588;10.176;2023-04-07T09:51:51;101708.44;;;14.33;34.03
46394;BME280;32099;53.588;10.176;2023-04-07T09:54:30;101705.00;;;14.55;34.60
46394;BME280;32099;53.588;10.176;2023-04-07T09:56:56;101713.13;;;14.63;35.57
46394;BME280;32099;53.588;10.176;2023-04-07T09:59:22;101705.63;;;14.57;31.88
46394;BME280;32099;53.588;10.176;2023-04-07T10:01:49;101710.16;;;14.49;32.91
46394;BME280;32099;53.588;10.176;2023-04-07T10:04:15;101705.28;;;14.60;36.26
46394;BME280;32099;53.588;10.176;2023-04-07T10:06:41;101700.28;;;14.78;33.91
46394;BME280;32099;53.588;10.176;2023-04-07T10:09:07;101713.75;;;14.73;33.57
46394;BME280;32099;53.588;10.176;2023-04-07T10:11:34;101710.81;;;14.75;33.38
46394;BME280;32099;53.588;10.176;2023-04-07T10:14:01;101706.66;;;14.79;32.96
46394;BME280;32099;53.588;10.176;2023-04-07T10:16:26;101706.56;;;14.87;32.13
46394;BME280;32099;53.588;10.176;2023-04-07T10:18:52;101702.50;;;14.98;34.53
46394;BME280;32099;53.588;10.176;2023-04-07T10:21:18;101705.41;;;14.96;33.18
46394;BME280;32099;53.588;10.176;2023-04-07T10:23:55;101707.59;;;14.86;33.29
46394;BME280;32099;53.588;10.176;2023-04-07T10:26:27;101711.56;;;14.69;33.00
46394;BME280;32099;53.588;10.176;2023-04-07T10:28:58;101707.63;;;14.48;33.59
46394;BME280;32099;53.588;10.176;2023-04-07T10:31:34;101699.56;;;14.46;32.59
46394;BME280;32099;53.588;10.176;2023-04-07T10:34:02;101708.81;;;14.45;34.05
46394;BME280;32099;53.588;10.176;2023-04-07T10:36:27;101706.16;;;14.37;33.05
46394;BME280;32099;53.588;10.176;2023-04-07T10:41:34;101699.25;;;14.03;35.58
46394;BME280;32099;53.588;10.176;2023-04-07T10:44:00;101708.69;;;14.00;36.66
46394;BME280;32099;53.588;10.176;2023-04-07T10:46:45;101708.31;;;14.03;34.63
46394;BME280;32099;53.588;10.176;2023-04-07T10:49:14;101703.00;;;14.02;33.54
46394;BME280;32099;53.588;10.176;2023-04-07T10:51:40;101705.88;;;13.85;33.90
46394;BME280;32099;53.588;10.176;2023-04-07T10:54:13;101707.22;;;13.58;35.19
46394;BME280;32099;53.588;10.176;2023-04-07T10:59:26;101714.56;;;13.18;34.43
46394;BME280;32099;53.588;10.176;2023-04-07T11:02:09;101718.38;;;13.08;35.54
46394;BME280;32099;53.588;10.176;2023-04-07T11:04:42;101714.09;;;13.14;36.78
46394;BME280;32099;53.588;10.176;2023-04-07T11:07:08;101720.91;;;13.18;35.09
46394;BME280;32099;53.588;10.176;2023-04-07T11:09:34;101712.69;;;13.18;37.16
46394;BME280;32099;53.588;10.176;2023-04-07T11:12:00;101713.84;;;13.24;37.24
46394;BME280;32099;53.588;10.176;2023-04-07T11:14:26;101711.63;;;13.27;35.88
46394;BME280;32099;53.588;10.176;2023-04-07T11:16:52;101708.91;;;13.27;34.70
46394;BME280;32099;53.588;10.176;2023-04-07T11:19:18;101708.84;;;13.44;35.99
46394;BME280;32099;53.588;10.176;2023-04-07T11:21:43;101713.09;;;13.55;33.46
46394;BME280;32099;53.588;10.176;2023-04-07T11:24:08;101716.84;;;13.54;34.07
46394;BME280;32099;53.588;10.176;2023-04-07T11:26:37;101720.28;;;13.48;34.94
46394;BME280;32099;53.588;10.176;2023-04-07T11:29:04;101712.91;;;13.56;34.33
46394;BME280;32099;53.588;10.176;2023-04-07T11:31:29;101714.97;;;13.54;34.16
46394;BME280;32099;53.588;10.176;2023-04-07T11:33:57;101716.22;;;13.44;34.38
46394;BME280;32099;53.588;10.176;2023-04-07T11:38:55;101705.47;;;13.25;34.23
46394;BME280;32099;53.588;10.176;2023-04-07T11:41:21;101714.53;;;13.34;34.77
46394;BME280;32099;53.588;10.176;2023-04-07T11:43:47;101718.28;;;13.33;34.18
46394;BME280;32099;53.588;10.176;2023-04-07T11:46:14;101717.13;;;13.27;35.73
46394;BME280;32099;53.588;10.176;2023-04-07T11:48:41;101722.59;;;13.19;34.39
46394;BME280;32099;53.588;10.176;2023-04-07T11:53:43;101719.91;;;13.11;35.48
46394;BME280;32099;53.588;10.176;2023-04-07T11:56:12;101718.34;;;13.17;35.67
46394;BME280;32099;53.588;10.176;2023-04-07T11:58:48;101728.59;;;13.23;34.91
46394;BME280;32099;53.588;10.176;2023-04-07T12:01:15;101723.78;;;13.25;36.17
46394;BME280;32099;53.588;10.176;2023-04-07T12:03:53;101717.28;;;13.26;34.32
46394;BME280;32099;53.588;10.176;2023-04-07T12:06:30;101716.59;;;13.24;36.21
46394;BME280;32099;53.588;10.176;2023-04-07T12:09:02;101729.25;;;13.25;34.21
46394;BME280;32099;53.588;10.176;2023-04-07T12:11:29;101720.69;;;13.28;34.60
46394;BME280;32099;53.588;10.176;2023-04-07T12:13:55;101710.63;;;13.29;35.59
46394;BME280;32099;53.588;10.176;2023-04-07T12:16:21;101708.84;;;13.44;34.44
46394;BME280;32099;53.588;10.176;2023-04-07T12:18:47;101723.66;;;13.58;36.01
46394;BME280;32099;53.588;10.176;2023-04-07T12:21:13;101718.56;;;13.55;33.22
46394;BME280;32099;53.588;10.176;2023-04-07T12:23:38;101716.53;;;13.49;35.49
46394;BME280;32099;53.588;10.176;2023-04-07T12:26:03;101727.97;;;13.61;35.63
46394;BME280;32099;53.588;10.176;2023-04-07T12:28:29;101719.13;;;13.73;34.09
46394;BME280;32099;53.588;10.176;2023-04-07T12:30:54;101725.91;;;13.86;35.85
46394;BME280;32099;53.588;10.176;2023-04-07T12:33:20;101723.13;;;13.94;35.38
46394;BME280;32099;53.588;10.176;2023-04-07T12:35:45;101729.22;;;14.04;34.92
46394;BME280;32099;53.588;10.176;2023-04-07T12:38:11;101732.59;;;14.15;33.37
46394;BME280;32099;53.588;10.176;2023-04-07T12:40:36;101725.31;;;14.22;35.61
46394;BME280;32099;53.588;10.176;2023-04-07T12:43:02;101736.66;;;14.19;34.55
46394;BME280;32099;53.588;10.176;2023-04-07T12:45:28;101727.94;;;14.15;34.02
46394;BME280;32099;53.588;10.176;2023-04-07T12:47:54;101735.44;;;14.22;35.01
46394;BME280;32099;53.588;10.176;2023-04-07T12:50:20;101733.91;;;14.19;35.04
46394;BME280;32099;53.588;10.176;2023-04-07T12:52:46;101731.13;;;14.04;34.27
46394;BME280;32099;53.588;10.176;2023-04-07T12:55:12;101719.53;;;13.62;34.18
46394;BME280;32099;53.588;10.176;2023-04-07T12:57:38;101721.50;;;13.45;34.65
46394;BME280;32099;53.588;10.176;2023-04-07T13:00:03;101727.16;;;13.35;36.67